createdAt,value
2023-02-23T00:01:58.322Z,42.73
2023-02-23T00:04:27.603Z,51.70
2023-02-23T00:06:55.541Z,52.33
2023-02-23T00:09:27.789Z,53.03
2023-02-23T00:11:57.581Z,51.70
2023-02-23T00:14:28.429Z,46.53
2023-02-23T00:16:56.497Z,45.60
2023-02-23T00:19:25.186Z,48.67
2023-02-23T00:21:58.792Z,43.03
2023-02-23T00:24:28.020Z,39.00
2023-02-23T00:26:56.154Z,39.27
2023-02-23T00:29:26.406Z,45.50
2023-02-23T00:31:56.530Z,48.47
2023-02-23T00:34:24.486Z,47.57
2023-02-23T00:36:55.570Z,43.97
2023-02-23T00:39:26.845Z,48.53
2023-02-23T00:41:55.917Z,43.90
2023-02-23T00:44:25.615Z,45.93
2023-02-23T00:46:53.803Z,44.03
2023-02-23T00:49:23.128Z,44.47
2023-02-23T00:51:52.252Z,45.43
2023-02-23T00:54:23.158Z,43.23
2023-02-23T00:56:51.731Z,45.33
2023-02-23T00:59:20.425Z,41.37
2023-02-23T01:01:48.609Z,41.17
2023-02-23T01:04:16.786Z,44.03
2023-02-23T01:06:46.326Z,42.40
2023-02-23T01:09:27.232Z,42.63
2023-02-23T01:12:01.727Z,43.80
2023-02-23T01:14:31.331Z,44.00
2023-02-23T01:16:59.302Z,44.80
2023-02-23T01:19:27.209Z,44.97
2023-02-23T01:21:55.064Z,46.63
2023-02-23T01:24:22.933Z,40.23
2023-02-23T01:26:50.755Z,41.93
2023-02-23T01:29:20.008Z,38.50
2023-02-23T01:31:51.229Z,40.53
2023-02-23T01:34:21.682Z,40.37
2023-02-23T01:36:50.110Z,35.67
2023-02-23T01:39:19.671Z,37.80
2023-02-23T01:41:47.631Z,36.70
2023-02-23T01:44:48.477Z,38.60
2023-02-23T01:47:20.408Z,37.80
2023-02-23T01:49:48.776Z,35.80
2023-02-23T01:52:18.361Z,34.93
2023-02-23T01:54:51.289Z,34.73
2023-02-23T01:57:24.920Z,35.30
2023-02-23T01:59:54.058Z,35.53
2023-02-23T02:02:32.951Z,34.40
2023-02-23T02:05:01.857Z,35.43
2023-02-23T02:07:35.190Z,35.63
2023-02-23T02:10:17.314Z,34.00
2023-02-23T02:12:51.977Z,35.60
2023-02-23T02:15:26.007Z,35.67
2023-02-23T02:18:09.272Z,34.30
2023-02-23T02:21:06.163Z,34.50
2023-02-23T02:24:12.146Z,34.27
2023-02-23T02:26:50.889Z,34.03
2023-02-23T02:29:56.095Z,34.33
2023-02-23T02:33:06.418Z,33.27
2023-02-23T02:36:11.854Z,33.43
2023-02-23T02:38:53.880Z,33.10
2023-02-23T02:41:35.529Z,33.63
2023-02-23T02:44:13.064Z,33.33
2023-02-23T02:46:45.495Z,34.53
2023-02-23T02:49:18.398Z,35.53
2023-02-23T02:51:52.868Z,32.13
2023-02-23T02:54:28.286Z,29.63
2023-02-23T02:57:00.499Z,29.83
2023-02-23T02:59:46.582Z,29.57
2023-02-23T03:02:35.694Z,27.33
2023-02-23T03:05:21.119Z,28.60
2023-02-23T03:08:16.404Z,28.13
2023-02-23T03:11:08.780Z,27.90
2023-02-23T03:14:06.820Z,30.40
2023-02-23T03:17:02.921Z,32.60
2023-02-23T03:19:53.554Z,30.97
2023-02-23T03:22:45.010Z,29.43
2023-02-23T03:25:35.030Z,32.07
2023-02-23T03:28:29.398Z,30.77
2023-02-23T03:31:26.603Z,30.93
2023-02-23T03:34:19.750Z,30.33
2023-02-23T03:37:11.889Z,30.53
2023-02-23T03:40:02.616Z,31.47
2023-02-23T03:42:53.259Z,32.17
2023-02-23T03:45:43.917Z,33.03
2023-02-23T03:48:32.395Z,32.17
2023-02-23T03:51:24.293Z,32.03
2023-02-23T03:54:17.260Z,31.60
2023-02-23T03:57:06.712Z,32.20
2023-02-23T03:59:57.146Z,30.87
2023-02-23T04:02:44.842Z,29.37
2023-02-23T04:05:35.431Z,29.70
2023-02-23T04:08:25.110Z,29.50
2023-02-23T04:11:19.975Z,30.00
2023-02-23T04:13:50.130Z,28.67
2023-02-23T04:16:17.231Z,29.70
2023-02-23T04:18:46.606Z,30.20
2023-02-23T04:21:14.839Z,30.57
2023-02-23T04:23:44.221Z,28.33
2023-02-23T04:26:12.056Z,30.77
2023-02-23T04:28:39.951Z,32.37
2023-02-23T04:31:07.901Z,29.77
2023-02-23T04:33:35.709Z,30.07
2023-02-23T04:36:05.432Z,29.03
2023-02-23T04:38:33.262Z,28.97
2023-02-23T04:41:01.192Z,28.40
2023-02-23T04:43:29.203Z,29.07
2023-02-23T04:45:57.175Z,28.90
2023-02-23T04:48:26.996Z,28.47
2023-02-23T04:50:55.473Z,29.40
2023-02-23T04:53:25.532Z,30.60
2023-02-23T04:55:53.369Z,29.57
2023-02-23T04:58:21.224Z,29.70
2023-02-23T05:00:49.724Z,30.37
2023-02-23T05:03:18.443Z,28.80
2023-02-23T05:05:47.063Z,27.53
2023-02-23T05:08:14.899Z,29.77
2023-02-23T05:10:44.117Z,28.57
2023-02-23T05:13:12.009Z,28.60
2023-02-23T05:15:39.936Z,30.73
2023-02-23T05:18:08.345Z,28.23
2023-02-23T05:20:36.509Z,25.57
2023-02-23T05:23:04.653Z,25.37
2023-02-23T05:25:33.510Z,23.57
2023-02-23T05:28:02.725Z,19.37
2023-02-23T05:30:30.839Z,17.40
2023-02-23T05:32:58.766Z,16.53
2023-02-23T05:35:26.763Z,17.80
2023-02-23T05:37:54.892Z,17.13
2023-02-23T05:40:22.956Z,17.67
2023-02-23T05:42:50.823Z,17.67
2023-02-23T05:45:20.059Z,17.30
2023-02-23T05:47:48.229Z,17.40
2023-02-23T05:50:16.160Z,16.70
2023-02-23T05:52:44.231Z,16.90
2023-02-23T05:55:12.908Z,15.37
2023-02-23T05:57:42.695Z,16.50
2023-02-23T06:00:13.694Z,16.33
2023-02-23T06:02:43.250Z,16.93
2023-02-23T06:05:11.802Z,18.73
2023-02-23T06:07:39.702Z,18.57
2023-02-23T06:10:08.425Z,17.57
2023-02-23T06:12:36.422Z,17.83
2023-02-23T06:15:04.814Z,20.77
2023-02-23T06:17:32.958Z,23.03
2023-02-23T06:20:04.842Z,24.23
2023-02-23T06:22:32.767Z,26.40
2023-02-23T06:25:00.623Z,26.07
2023-02-23T06:27:30.761Z,25.20
2023-02-23T06:29:58.980Z,24.83
2023-02-23T06:32:27.707Z,24.73
2023-02-23T06:34:56.193Z,24.43
2023-02-23T06:37:25.769Z,24.97
2023-02-23T06:39:55.240Z,27.73
2023-02-23T06:42:23.106Z,30.87
2023-02-23T06:44:53.586Z,28.73
2023-02-23T06:47:21.526Z,26.97
2023-02-23T06:49:49.522Z,25.57
2023-02-23T06:52:17.485Z,25.90
2023-02-23T06:54:48.218Z,27.00
2023-02-23T06:57:16.561Z,26.33
2023-02-23T06:59:44.559Z,25.20
2023-02-23T07:02:14.194Z,26.10
2023-02-23T07:04:42.384Z,24.10
2023-02-23T07:07:11.445Z,23.50
2023-02-23T07:09:40.900Z,24.23
2023-02-23T07:12:11.829Z,23.47
2023-02-23T07:14:40.676Z,22.40
2023-02-23T07:17:11.564Z,22.20
2023-02-23T07:19:40.626Z,23.37
2023-02-23T07:22:08.575Z,22.37
2023-02-23T07:24:38.545Z,22.87
2023-02-23T07:27:06.633Z,24.90
2023-02-23T07:29:36.134Z,24.10
2023-02-23T07:32:06.540Z,25.50
2023-02-23T07:34:34.556Z,25.10
2023-02-23T07:37:02.462Z,24.80
2023-02-23T07:39:31.123Z,24.20
2023-02-23T07:41:59.078Z,24.03
2023-02-23T07:44:26.935Z,25.00
2023-02-23T07:46:56.397Z,24.87
2023-02-23T07:49:25.418Z,26.47
2023-02-23T07:51:53.358Z,24.10
2023-02-23T07:54:21.979Z,23.97
2023-02-23T07:56:49.862Z,25.77
2023-02-23T07:59:17.842Z,25.27
2023-02-23T08:01:45.868Z,24.50
2023-02-23T08:04:15.285Z,26.43
2023-02-23T08:06:43.345Z,23.47
2023-02-23T08:09:12.610Z,17.63
2023-02-23T08:11:40.570Z,20.53
2023-02-23T08:14:10.524Z,21.10
2023-02-23T08:16:38.448Z,21.23
2023-02-23T08:19:06.348Z,20.77
2023-02-23T08:21:38.119Z,19.43
2023-02-23T08:24:07.220Z,20.80
2023-02-23T08:26:36.729Z,20.10
2023-02-23T08:29:04.924Z,20.20
2023-02-23T08:31:32.922Z,20.40
2023-02-23T08:34:01.648Z,21.17
2023-02-23T08:36:29.630Z,20.45
2023-02-23T08:39:00.697Z,20.02
2023-02-23T08:41:29.074Z,18.90
2023-02-23T08:43:56.894Z,20.83
2023-02-23T08:46:24.826Z,21.27
2023-02-23T08:48:52.786Z,20.98
2023-02-23T08:51:20.978Z,19.75
2023-02-23T08:53:49.053Z,18.55
2023-02-23T08:56:18.479Z,22.65
2023-02-23T08:58:47.952Z,20.52
2023-02-23T09:01:18.979Z,18.88
2023-02-23T09:03:47.330Z,19.60
2023-02-23T09:06:18.431Z,18.85
2023-02-23T09:08:46.733Z,17.65
2023-02-23T09:11:14.645Z,17.95
2023-02-23T09:13:44.734Z,15.95
2023-02-23T09:16:12.610Z,15.32
2023-02-23T09:18:40.634Z,17.73
2023-02-23T09:21:11.919Z,16.48
2023-02-23T09:23:41.913Z,16.08
2023-02-23T09:26:10.067Z,16.80
2023-02-23T09:28:41.068Z,16.90
2023-02-23T09:31:12.526Z,16.00
2023-02-23T09:33:41.071Z,15.27
2023-02-23T09:36:13.778Z,16.08
2023-02-23T09:38:41.790Z,15.45
2023-02-23T09:41:35.335Z,17.08
2023-02-23T09:44:10.598Z,14.15
2023-02-23T09:46:49.013Z,17.02
2023-02-23T09:49:21.075Z,12.65
2023-02-23T09:51:55.349Z,14.40
2023-02-23T09:54:24.195Z,14.30
2023-02-23T09:56:54.275Z,14.82
2023-02-23T09:59:23.446Z,13.93
2023-02-23T10:02:01.544Z,13.38
2023-02-23T10:04:32.378Z,14.18
2023-02-23T10:07:04.916Z,13.35
2023-02-23T10:09:54.606Z,14.63
2023-02-23T10:12:34.302Z,15.95
2023-02-23T10:15:25.331Z,15.50
2023-02-23T10:18:05.098Z,14.75
2023-02-23T10:20:45.247Z,14.93
2023-02-23T10:23:17.978Z,14.57
2023-02-23T10:25:50.882Z,14.52
2023-02-23T10:28:22.408Z,14.60
2023-02-23T10:30:51.500Z,13.20
2023-02-23T10:33:25.407Z,13.48
2023-02-23T10:36:12.503Z,12.77
2023-02-23T10:38:41.979Z,12.43
2023-02-23T10:41:14.712Z,13.35
2023-02-23T10:43:43.022Z,13.07
2023-02-23T10:46:21.316Z,12.50
2023-02-23T10:48:52.065Z,12.20
2023-02-23T10:51:26.278Z,11.98
2023-02-23T10:53:54.329Z,12.55
2023-02-23T10:56:26.156Z,12.93
2023-02-23T10:58:56.539Z,11.98
2023-02-23T11:01:41.882Z,12.65
2023-02-23T11:04:23.103Z,12.00
2023-02-23T11:06:53.162Z,10.55
2023-02-23T11:09:41.288Z,13.18
2023-02-23T11:12:22.906Z,8.25
2023-02-23T11:14:51.925Z,7.65
2023-02-23T11:17:29.515Z,8.77
2023-02-23T11:20:08.973Z,8.60
2023-02-23T11:22:44.513Z,9.00
2023-02-23T11:25:17.740Z,9.65
2023-02-23T11:27:51.484Z,9.27
2023-02-23T11:30:24.525Z,12.18
2023-02-23T11:32:54.422Z,9.73
2023-02-23T11:35:32.292Z,9.40
2023-02-23T11:38:00.561Z,8.00
2023-02-23T11:40:31.488Z,7.15
2023-02-23T11:43:09.455Z,6.82
2023-02-23T11:45:45.880Z,6.63
2023-02-23T11:48:23.448Z,6.93
2023-02-23T11:50:54.321Z,6.50
2023-02-23T11:53:29.634Z,7.22
2023-02-23T11:56:02.670Z,8.02
2023-02-23T11:58:40.459Z,7.28
2023-02-23T12:01:12.420Z,7.07
2023-02-23T12:03:47.898Z,8.55
2023-02-23T12:06:31.095Z,11.65
2023-02-23T12:09:06.560Z,7.68
2023-02-23T12:11:40.833Z,7.30
2023-02-23T12:14:13.646Z,6.53
2023-02-23T12:16:45.056Z,6.68
2023-02-23T12:19:25.613Z,7.00
2023-02-23T12:22:03.746Z,5.97
2023-02-23T12:24:43.744Z,6.68
2023-02-23T12:27:17.177Z,5.80
2023-02-23T12:30:10.980Z,5.78
2023-02-23T12:32:51.221Z,5.93
2023-02-23T12:35:24.788Z,5.70
2023-02-23T12:38:01.326Z,5.80
2023-02-23T12:40:33.943Z,5.82
2023-02-23T12:43:08.663Z,6.72
2023-02-23T12:45:46.326Z,5.57
2023-02-23T12:48:29.846Z,5.32
2023-02-23T12:51:00.182Z,7.10
2023-02-23T12:53:39.628Z,6.22
2023-02-23T12:56:33.972Z,5.85
2023-02-23T12:59:20.244Z,5.80
2023-02-23T13:01:54.130Z,5.72
2023-02-23T13:04:58.455Z,5.93
2023-02-23T13:07:34.711Z,6.53
2023-02-23T13:10:17.341Z,7.05
2023-02-23T13:12:55.324Z,6.20
2023-02-23T13:15:31.364Z,6.38
2023-02-23T13:18:10.547Z,6.50
2023-02-23T13:20:42.490Z,6.50
2023-02-23T13:23:21.832Z,6.32
2023-02-23T13:26:00.663Z,6.05
2023-02-23T13:28:39.578Z,5.63
2023-02-23T13:31:20.704Z,5.53
2023-02-23T13:33:50.444Z,6.38
2023-02-23T13:36:20.647Z,6.30
2023-02-23T13:39:17.936Z,5.80
2023-02-23T13:41:53.540Z,5.72
2023-02-23T13:44:28.233Z,6.03
2023-02-23T13:47:01.373Z,5.70
2023-02-23T13:49:39.840Z,5.43
2023-02-23T13:52:30.546Z,5.60
2023-02-23T13:55:03.996Z,5.63
2023-02-23T13:57:35.427Z,5.70
2023-02-23T14:00:04.441Z,5.30
2023-02-23T14:02:37.677Z,5.13
2023-02-23T14:05:14.180Z,5.33
2023-02-23T14:07:46.717Z,5.50
2023-02-23T14:10:21.180Z,6.30
2023-02-23T14:13:26.200Z,6.03
2023-02-23T14:16:12.108Z,6.70
2023-02-23T14:18:56.016Z,6.70
2023-02-23T14:21:31.535Z,7.20
2023-02-23T14:24:06.606Z,7.00
2023-02-23T14:26:43.864Z,7.60
2023-02-23T14:29:29.347Z,7.23
2023-02-23T14:32:04.187Z,7.57
2023-02-23T14:34:58.264Z,8.00
2023-02-23T14:37:32.100Z,7.60
2023-02-23T14:40:10.963Z,7.47
2023-02-23T14:42:40.144Z,6.57
2023-02-23T14:45:20.559Z,7.30
2023-02-23T14:47:52.259Z,6.50
2023-02-23T14:50:27.377Z,6.70
2023-02-23T14:52:57.937Z,6.00
2023-02-23T14:55:29.418Z,6.63
2023-02-23T14:57:58.388Z,6.90
2023-02-23T15:00:32.658Z,6.70
2023-02-23T15:03:03.017Z,7.00
2023-02-23T15:05:32.813Z,6.57
2023-02-23T15:08:02.460Z,7.00
2023-02-23T15:10:35.341Z,7.00
2023-02-23T15:13:11.456Z,8.60
2023-02-23T15:15:45.989Z,7.50
2023-02-23T15:18:23.070Z,7.97
2023-02-23T15:20:51.964Z,8.33
2023-02-23T15:23:21.533Z,7.83
2023-02-23T15:25:51.324Z,7.70
2023-02-23T15:28:24.077Z,9.33
2023-02-23T15:30:55.326Z,8.87
2023-02-23T15:33:28.622Z,8.10
2023-02-23T15:36:03.482Z,7.80
2023-02-23T15:38:43.483Z,8.20
2023-02-23T15:41:18.916Z,7.90
2023-02-23T15:43:47.204Z,8.67
2023-02-23T15:46:31.994Z,7.77
2023-02-23T15:49:03.420Z,9.03
2023-02-23T15:51:37.165Z,8.63
2023-02-23T15:54:14.167Z,8.70
2023-02-23T15:56:46.999Z,8.07
2023-02-23T15:59:21.954Z,9.47
2023-02-23T16:01:55.064Z,9.00
2023-02-23T16:04:33.240Z,8.93
2023-02-23T16:07:16.438Z,8.20
2023-02-23T16:09:50.729Z,8.60
2023-02-23T16:12:22.570Z,8.20
2023-02-23T16:14:55.181Z,9.27
2023-02-23T16:17:30.730Z,9.20
2023-02-23T16:20:12.997Z,9.73
2023-02-23T16:22:48.441Z,9.83
2023-02-23T16:25:22.031Z,10.00
2023-02-23T16:27:59.693Z,11.03
2023-02-23T16:30:37.621Z,11.17
2023-02-23T16:33:19.233Z,11.00
2023-02-23T16:35:49.549Z,10.03
2023-02-23T16:38:27.903Z,11.00
2023-02-23T16:40:56.001Z,10.50
2023-02-23T16:43:23.896Z,11.60
2023-02-23T16:45:52.061Z,12.30
2023-02-23T16:48:21.310Z,11.43
2023-02-23T16:50:50.620Z,12.93
2023-02-23T16:53:18.637Z,13.43
2023-02-23T16:55:50.197Z,13.23
2023-02-23T16:58:20.840Z,12.03
2023-02-23T17:00:49.112Z,12.63
2023-02-23T17:03:21.439Z,11.47
2023-02-23T17:05:50.704Z,10.83
2023-02-23T17:08:19.289Z,13.83
2023-02-23T17:10:50.669Z,13.80
2023-02-23T17:13:20.713Z,13.33
2023-02-23T17:15:52.354Z,15.33
2023-02-23T17:20:56.078Z,14.77
2023-02-23T17:23:26.972Z,14.37
2023-02-23T17:25:55.845Z,14.93
2023-02-23T17:28:23.832Z,15.40
2023-02-23T17:30:51.782Z,17.37
2023-02-23T17:33:20.228Z,17.37
2023-02-23T17:35:48.179Z,18.30
2023-02-23T17:38:23.429Z,17.90
2023-02-23T17:40:51.909Z,15.97
2023-02-23T17:43:21.254Z,17.33
2023-02-23T17:45:50.383Z,17.50
2023-02-23T17:48:18.750Z,17.03
2023-02-23T17:50:46.861Z,17.57
2023-02-23T17:53:14.816Z,19.63
2023-02-23T17:55:44.061Z,18.70
2023-02-23T17:58:14.104Z,19.83
2023-02-23T18:00:41.953Z,22.93
2023-02-23T18:03:09.882Z,22.20
2023-02-23T18:05:37.933Z,20.87
2023-02-23T18:08:06.042Z,20.93
2023-02-23T18:10:37.695Z,17.90
2023-02-23T18:13:07.554Z,16.33
2023-02-23T18:15:35.661Z,18.80
2023-02-23T18:18:04.885Z,18.60
2023-02-23T18:20:33.177Z,20.60
2023-02-23T18:23:02.281Z,19.07
2023-02-23T18:25:31.725Z,19.20
2023-02-23T18:28:00.065Z,19.70
2023-02-23T18:30:29.620Z,20.17
2023-02-23T18:33:00.530Z,20.30
2023-02-23T18:35:28.694Z,20.80
2023-02-23T18:37:56.712Z,20.60
2023-02-23T18:40:26.241Z,19.97
2023-02-23T18:42:54.184Z,22.27
2023-02-23T18:45:23.881Z,22.73
2023-02-23T18:47:53.190Z,22.00
2023-02-23T18:50:21.829Z,22.60
2023-02-23T18:52:51.415Z,21.40
2023-02-23T18:55:19.809Z,23.20
2023-02-23T18:57:49.600Z,21.33
2023-02-23T19:00:18.761Z,20.57
2023-02-23T19:02:47.518Z,21.80
2023-02-23T19:05:21.037Z,24.13
2023-02-23T19:07:49.918Z,26.03
2023-02-23T19:10:18.039Z,23.90
2023-02-23T19:12:45.903Z,25.20
2023-02-23T19:15:14.180Z,25.43
2023-02-23T19:17:44.603Z,26.20
2023-02-23T19:20:14.662Z,22.07
2023-02-23T19:22:45.824Z,19.93
2023-02-23T19:25:15.118Z,21.47
2023-02-23T19:27:43.390Z,20.23
2023-02-23T19:30:12.974Z,19.97
2023-02-23T19:32:44.932Z,19.57
2023-02-23T19:35:15.797Z,21.17
2023-02-23T19:37:53.086Z,21.50
2023-02-23T19:40:24.010Z,21.30
2023-02-23T19:42:53.231Z,20.70
2023-02-23T19:45:22.378Z,20.33
2023-02-23T19:47:53.177Z,19.53
2023-02-23T19:50:22.522Z,20.20
2023-02-23T19:52:51.838Z,20.73
2023-02-23T19:55:20.974Z,21.10
2023-02-23T19:57:49.078Z,20.20
2023-02-23T20:00:18.021Z,18.57
2023-02-23T20:02:47.726Z,20.33
2023-02-23T20:05:17.710Z,19.60
2023-02-23T20:07:46.061Z,20.87
2023-02-23T20:10:16.284Z,21.97
2023-02-23T20:12:45.291Z,20.50
2023-02-23T20:15:15.239Z,22.43
2023-02-23T20:17:43.717Z,20.87
2023-02-23T21:25:00.406Z,28.93
2023-02-23T21:27:28.612Z,27.23
2023-02-23T21:29:56.421Z,25.93
2023-02-23T21:32:27.118Z,26.80
2023-02-23T21:34:55.088Z,26.07
2023-02-23T21:37:22.954Z,26.30
2023-02-23T21:39:51.238Z,27.43
2023-02-23T21:42:23.022Z,23.33
2023-02-23T21:44:51.750Z,25.73
2023-02-23T21:47:19.616Z,25.37
2023-02-23T21:49:49.422Z,23.17
2023-02-23T21:52:17.856Z,21.67
2023-02-23T21:54:51.541Z,25.93
2023-02-23T21:57:22.688Z,23.17
2023-02-23T21:59:50.545Z,22.97
2023-02-23T22:02:18.424Z,23.77
2023-02-23T22:04:47.572Z,22.53
2023-02-23T22:07:16.832Z,23.23
2023-02-23T22:09:47.300Z,23.07
2023-02-23T22:12:15.293Z,23.37
2023-02-23T22:14:44.746Z,21.43
2023-02-23T22:17:12.936Z,22.80
2023-02-23T22:19:40.826Z,21.00
2023-02-23T22:22:08.903Z,21.23
2023-02-23T22:24:36.874Z,19.77
2023-02-23T22:27:04.892Z,20.00
2023-02-23T22:29:32.796Z,18.00
2023-02-23T22:32:02.434Z,18.00
2023-02-23T22:34:30.444Z,19.13
2023-02-23T22:36:58.575Z,16.73
2023-02-23T22:39:26.445Z,19.27
2023-02-23T22:41:54.289Z,16.07
2023-02-23T22:44:22.733Z,16.63
2023-02-23T22:46:50.748Z,15.40
2023-02-23T22:49:20.486Z,15.70
2023-02-23T22:51:48.658Z,14.67
2023-02-23T22:54:17.475Z,15.23
2023-02-23T22:56:46.854Z,13.60
2023-02-23T22:59:17.456Z,13.20
2023-02-23T23:01:47.505Z,12.97
2023-02-23T23:04:15.562Z,10.67
2023-02-23T23:06:46.242Z,11.03
2023-02-23T23:09:16.488Z,10.90
2023-02-23T23:11:44.987Z,10.60
2023-02-23T23:14:13.620Z,9.23
2023-02-23T23:16:48.087Z,9.60
2023-02-23T23:19:18.149Z,9.50
2023-02-23T23:21:47.413Z,9.37
2023-02-23T23:24:16.061Z,10.03
2023-02-23T23:26:44.468Z,9.57
2023-02-23T23:29:15.226Z,7.77
2023-02-23T23:31:46.451Z,9.13
2023-02-23T23:34:17.231Z,8.67
2023-02-23T23:36:49.461Z,8.93
2023-02-23T23:39:18.470Z,8.37
2023-02-23T23:41:48.104Z,8.53
2023-02-23T23:44:17.267Z,8.00
2023-02-23T23:46:46.626Z,8.63
2023-02-23T23:49:17.794Z,9.57
2023-02-23T23:51:50.404Z,9.40
2023-02-23T23:54:21.533Z,9.50
2023-02-23T23:56:50.281Z,10.13
2023-02-23T23:59:21.971Z,8.50
